Terminal Aerodrome Forecast
Issued by NWS

Home | Current Version | Previous Version | Text Only | Print | Product List | Glossary On
Versions: 1 2 3 4 5 6 7 8 9 10 11 12 13 14 15
291
FTUS44 KLZK 021130
TAFLIT
TAF
KLIT 021130Z 0212/0312 00000KT P6SM SKC
     FM021600 13005KT P6SM SCT250
     FM022200 09004KT P6SM BKN250
     FM030500 09005KT P6SM OVC090=

USA.gov is the U.S. government's official web portal to all federal, state and local government web resources and services.